Time;durP1;ratioP1;P1;durP2;ratioP2;P2;SDS_P1;SDS_P2;PMS_P1;PMS_P2;Temp;Humidity;BMP_temperature;BMP_pressure;BME280_temperature;BME280_humidity;BME280_pressure;Samples;Min_cycle;Max_cycle;Signal;HPM_P1;HPM_P2
2024/02/12 00:01:19;;;;;;;1.50;0.80;;;;;;;10.05;95.17;98312.41;10212542;28;20106;-61
2024/02/12 00:06:22;;;;;;;1.98;0.50;;;;;;;10.03;94.49;98330.38;10196374;28;20058;-64
2024/02/12 00:11:24;;;;;;;1.40;0.90;;;;;;;10.09;95.01;98336.84;10216994;28;20051;-64
2024/02/12 00:16:26;;;;;;;0.90;0.60;;;;;;;10.09;94.13;98328.88;10222638;28;20047;-64
2024/02/12 00:21:28;;;;;;;1.02;0.65;;;;;;;10.06;93.23;98330.03;10213651;28;20118;-63
2024/02/12 00:26:32;;;;;;;1.73;0.57;;;;;;;10.05;93.66;98327.53;10215905;28;20054;-64
2024/02/12 00:31:35;;;;;;;0.70;0.38;;;;;;;9.98;93.96;98331.88;10223616;28;20114;-63
2024/02/12 00:36:37;;;;;;;1.10;0.52;;;;;;;9.78;95.55;98328.72;10206638;28;20063;-64
2024/02/12 00:41:39;;;;;;;0.65;0.32;;;;;;;9.77;95.66;98335.84;10207524;28;20096;-64
2024/02/12 00:46:45;;;;;;;1.40;1.02;;;;;;;9.83;96.63;98350.28;10193665;28;20082;-64
2024/02/12 00:51:48;;;;;;;1.38;0.75;;;;;;;9.83;96.88;98337.84;10212020;28;20143;-63
2024/02/12 00:56:50;;;;;;;1.77;0.75;;;;;;;9.70;98.11;98343.66;10194821;28;20492;-63
2024/02/12 01:01:51;;;;;;;2.42;0.95;;;;;;;9.76;99.08;98342.16;10183889;28;20130;-64
2024/02/12 01:06:59;;;;;;;1.95;0.70;;;;;;;9.64;100.00;98344.31;10223077;28;20060;-64
2024/02/12 01:12:04;;;;;;;2.17;0.98;;;;;;;9.72;100.00;98346.13;10217323;28;20051;-63
2024/02/12 01:17:05;;;;;;;1.83;0.75;;;;;;;9.64;100.00;98351.47;10204483;28;20556;-65
2024/02/12 01:22:08;;;;;;;0.85;0.50;;;;;;;9.60;100.00;98340.31;10193648;28;20217;-61
2024/02/12 01:27:11;;;;;;;2.83;1.02;;;;;;;9.64;100.00;98349.63;10226446;28;20051;-62
2024/02/12 01:32:13;;;;;;;2.40;1.05;;;;;;;9.47;100.00;98339.97;10187236;28;20532;-63
2024/02/12 01:37:16;;;;;;;1.83;0.70;;;;;;;9.53;100.00;98358.75;10217374;28;20746;-64
2024/02/12 01:42:17;;;;;;;3.00;0.90;;;;;;;9.45;100.00;98366.69;10201853;28;20150;-62
2024/02/12 01:47:19;;;;;;;1.92;1.00;;;;;;;9.42;100.00;98364.34;10204907;28;20121;-64
2024/02/12 01:52:29;;;;;;;1.30;0.70;;;;;;;9.50;100.00;98368.84;10201455;28;20203;-64
2024/02/12 01:57:33;;;;;;;3.78;1.08;;;;;;;9.46;100.00;98376.31;10207735;28;20065;-63
2024/02/12 02:02:34;;;;;;;2.40;0.90;;;;;;;9.53;100.00;98377.34;10208655;28;20521;-61
2024/02/12 02:07:36;;;;;;;1.92;0.80;;;;;;;9.54;100.00;98376.31;10206820;28;20433;-63
2024/02/12 02:12:38;;;;;;;1.27;0.93;;;;;;;9.61;100.00;98387.16;10207059;28;20051;-63
2024/02/12 02:17:40;;;;;;;2.72;0.98;;;;;;;9.54;100.00;98383.47;10217731;28;20072;-62
2024/02/12 02:22:41;;;;;;;3.30;1.48;;;;;;;9.49;100.00;98383.97;10208959;28;20070;-63
2024/02/12 02:27:43;;;;;;;2.22;1.17;;;;;;;9.42;100.00;98390.91;10204698;28;20059;-62
2024/02/12 02:32:45;;;;;;;1.33;0.60;;;;;;;9.48;100.00;98395.56;10209628;28;20179;-63
2024/02/12 02:37:46;;;;;;;2.40;1.20;;;;;;;9.47;100.00;98399.25;10206579;28;20053;-62
2024/02/12 02:42:48;;;;;;;2.47;1.10;;;;;;;9.39;100.00;98383.25;10215417;28;21226;-63
2024/02/12 02:47:51;;;;;;;2.20;1.00;;;;;;;9.40;100.00;98387.59;10220946;28;20138;-61
2024/02/12 02:52:53;;;;;;;1.37;1.00;;;;;;;9.45;100.00;98392.41;10189379;28;20065;-62
2024/02/12 02:57:56;;;;;;;1.83;1.05;;;;;;;9.54;100.00;98397.56;10222500;28;20058;-63
2024/02/12 03:03:00;;;;;;;1.85;0.70;;;;;;;9.50;100.00;98404.22;10226193;28;20610;-63
2024/02/12 03:08:06;;;;;;;1.58;0.80;;;;;;;9.50;100.00;98398.91;10211391;28;20430;-63
2024/02/12 03:13:08;;;;;;;1.10;0.90;;;;;;;9.63;100.00;98408.22;10215320;28;20769;-64
2024/02/12 03:18:09;;;;;;;2.25;0.90;;;;;;;9.65;100.00;98411.53;10216994;28;20643;-63
2024/02/12 03:23:11;;;;;;;3.03;1.15;;;;;;;9.63;100.00;98424.16;10228023;28;20116;-65
2024/02/12 03:28:13;;;;;;;1.58;0.93;;;;;;;9.67;100.00;98436.16;10195298;28;20050;-63
2024/02/12 03:33:15;;;;;;;1.95;1.17;;;;;;;9.69;100.00;98434.97;10213947;28;20055;-62
2024/02/12 03:38:16;;;;;;;3.75;1.30;;;;;;;9.68;100.00;98435.13;10201264;28;20057;-64
2024/02/12 03:43:18;;;;;;;1.50;1.23;;;;;;;9.74;100.00;98447.75;10210717;28;20072;-64
2024/02/12 04:04:20;;;;;;;2.25;1.45;;;;;;;9.85;100.00;98473.22;10209444;28;20327;-63
2024/02/12 04:09:22;;;;;;;2.10;1.50;;;;;;;9.83;100.00;98472.53;10208959;28;20560;-63
2024/02/12 04:14:23;;;;;;;1.95;1.40;;;;;;;9.83;100.00;98481.34;10201662;28;20061;-63
2024/02/12 04:19:27;;;;;;;2.88;1.00;;;;;;;9.80;100.00;98497.59;10218680;28;20066;-64
2024/02/12 04:24:29;;;;;;;1.70;1.30;;;;;;;9.76;100.00;98506.91;10187136;28;20059;-63
2024/02/12 04:29:32;;;;;;;11.57;2.85;;;;;;;9.69;100.00;98508.53;10213774;28;20058;-62
2024/02/12 04:34:33;;;;;;;2.08;1.65;;;;;;;9.63;100.00;98482.63;10205272;28;20057;-62
2024/02/12 04:39:35;;;;;;;1.60;1.15;;;;;;;9.82;100.00;98511.56;10201750;28;20050;-64
2024/02/12 04:44:37;;;;;;;2.10;1.42;;;;;;;9.76;100.00;98506.91;10209434;28;20149;-62
2024/02/12 04:49:39;;;;;;;2.78;1.30;;;;;;;9.79;100.00;98511.03;10212469;28;20054;-61
2024/02/12 04:54:43;;;;;;;2.03;1.40;;;;;;;9.79;100.00;98506.59;10194401;28;20043;-62
2024/02/12 04:59:45;;;;;;;1.23;1.00;;;;;;;9.93;100.00;98533.53;10213970;28;20137;-63
2024/02/12 05:04:46;;;;;;;1.67;1.10;;;;;;;9.93;100.00;98531.69;10188806;28;20118;-63
2024/02/12 05:09:50;;;;;;;1.42;0.77;;;;;;;9.99;100.00;98546.19;10203166;28;20051;-65
2024/02/12 05:14:52;;;;;;;1.30;0.98;;;;;;;9.96;100.00;98557.13;10203718;28;20126;-64
2024/02/12 05:25:14;;;;;;;2.17;0.90;;;;;;;10.00;100.00;98574.44;10203475;28;20069;-67
2024/02/12 05:30:17;;;;;;;1.42;0.90;;;;;;;9.97;100.00;98574.72;10197306;28;20055;-64
2024/02/12 05:35:19;;;;;;;1.48;0.52;;;;;;;10.00;100.00;98579.75;10199257;28;20098;-64
2024/02/12 05:40:23;;;;;;;2.25;0.85;;;;;;;10.01;100.00;98584.06;10197124;28;20055;-64
2024/02/12 05:45:25;;;;;;;0.82;0.52;;;;;;;10.02;100.00;98586.56;10181463;28;20600;-64
2024/02/12 05:50:27;;;;;;;1.48;0.50;;;;;;;10.03;100.00;98590.06;10185944;28;20137;-64
2024/02/12 05:55:31;;;;;;;1.77;0.50;;;;;;;9.77;100.00;98553.72;10199929;28;20059;-65
2024/02/12 06:00:33;;;;;;;1.13;0.52;;;;;;;9.95;100.00;98587.34;10194946;28;20043;-63
2024/02/12 06:05:34;;;;;;;2.60;0.68;;;;;;;9.95;100.00;98587.34;10198620;28;20166;-63
2024/02/12 06:10:36;;;;;;;1.45;0.60;;;;;;;9.99;99.76;98599.34;10194885;28;20075;-64
2024/02/12 06:15:37;;;;;;;1.23;0.50;;;;;;;9.98;100.00;98602.97;10192412;28;20066;-63
2024/02/12 06:20:39;;;;;;;1.42;0.40;;;;;;;9.94;99.49;98614.91;10195373;28;20119;-64
2024/02/12 06:25:42;;;;;;;2.15;0.47;;;;;;;9.95;99.55;98621.91;10190614;28;20606;-65
2024/02/12 06:30:46;;;;;;;3.38;0.70;;;;;;;9.91;99.72;98630.19;10198810;28;20055;-63
2024/02/12 06:35:47;;;;;;;0.70;0.40;;;;;;;9.95;98.71;98640.50;10172115;28;20722;-64
2024/02/12 06:40:49;;;;;;;0.75;0.50;;;;;;;9.97;98.29;98654.47;10188745;28;20080;-64
2024/02/12 06:45:50;;;;;;;1.23;0.85;;;;;;;9.99;98.55;98657.81;10204577;28;20146;-64
2024/02/12 06:50:52;;;;;;;2.10;1.20;;;;;;;10.00;97.11;98670.13;10185283;28;20043;-63
2024/02/12 06:55:53;;;;;;;1.80;0.57;;;;;;;10.00;96.82;98681.59;10201412;28;20187;-64
2024/02/12 07:00:57;;;;;;;2.10;1.00;;;;;;;9.96;95.44;98684.72;10194388;28;20070;-66
2024/02/12 07:05:59;;;;;;;1.58;0.98;;;;;;;9.91;96.28;98693.16;10202921;28;20722;-64
2024/02/12 07:11:03;;;;;;;1.27;1.10;;;;;;;9.89;95.46;98695.13;10196192;28;20055;-64
2024/02/12 07:16:05;;;;;;;2.72;0.75;;;;;;;9.96;95.54;98705.97;10198292;28;20078;-65
2024/02/12 07:21:07;;;;;;;1.80;1.05;;;;;;;10.01;94.95;98709.00;10195729;28;20133;-64
2024/02/12 07:26:09;;;;;;;1.02;0.82;;;;;;;10.04;96.04;98716.66;10200587;28;20729;-64
2024/02/12 07:31:11;;;;;;;1.65;1.50;;;;;;;10.07;94.32;98733.13;10197666;28;20058;-64
2024/02/12 07:36:12;;;;;;;1.98;1.73;;;;;;;10.07;94.61;98738.47;10200270;28;20733;-64
2024/02/12 07:41:14;;;;;;;2.10;1.90;;;;;;;10.12;93.42;98745.94;10198898;28;20655;-64
2024/02/12 07:46:15;;;;;;;4.75;2.03;;;;;;;10.11;92.94;98735.47;10206374;28;20120;-64
2024/02/12 07:51:18;;;;;;;3.55;1.83;;;;;;;10.09;92.45;98749.75;10200514;28;20183;-64
2024/02/12 07:56:21;;;;;;;3.88;2.50;;;;;;;10.06;91.45;98770.50;10207134;28;20134;-62
2024/02/12 08:01:22;;;;;;;3.72;2.15;;;;;;;9.98;91.94;98757.16;10194170;28;20055;-64
2024/02/12 08:06:24;;;;;;;3.25;2.53;;;;;;;10.03;92.14;98776.16;10176082;28;20063;-64
2024/02/12 08:11:25;;;;;;;3.30;2.78;;;;;;;10.01;92.30;98781.63;10200171;28;20060;-64
2024/02/12 08:16:27;;;;;;;3.40;2.15;;;;;;;10.04;93.12;98780.44;10197554;28;20088;-64
2024/02/12 08:21:28;;;;;;;3.63;2.38;;;;;;;10.08;92.23;98789.78;10203660;28;20065;-64
2024/02/12 08:26:32;;;;;;;4.50;2.05;;;;;;;10.07;92.64;98798.75;10181907;28;20058;-64
2024/02/12 08:31:34;;;;;;;5.40;2.45;;;;;;;10.08;91.59;98800.44;10191385;28;20091;-64
2024/02/12 08:36:46;;;;;;;4.43;2.92;;;;;;;10.21;91.97;98808.81;10187740;28;20071;-64
2024/02/12 08:41:49;;;;;;;6.00;3.28;;;;;;;10.23;90.77;98820.13;10206634;28;20055;-64
2024/02/12 08:46:51;;;;;;;4.82;3.03;;;;;;;10.27;89.73;98828.66;10200199;28;20443;-62
2024/02/12 08:51:52;;;;;;;4.38;3.28;;;;;;;10.27;89.56;98832.13;10207479;28;20533;-65
2024/02/12 08:56:54;;;;;;;4.88;3.03;;;;;;;10.30;89.74;98830.13;10188008;28;20048;-64
2024/02/12 09:01:55;;;;;;;6.55;3.55;;;;;;;10.19;88.47;98818.78;10200926;28;20616;-63
2024/02/12 09:06:57;;;;;;;5.88;2.92;;;;;;;10.38;87.94;98855.00;10193352;28;20758;-64
2024/02/12 09:11:59;;;;;;;6.35;3.97;;;;;;;10.09;86.24;98812.75;10189323;28;20050;-63
2024/02/12 09:17:01;;;;;;;5.13;4.00;;;;;;;10.32;87.82;98866.25;10219527;28;20604;-62
2024/02/12 09:22:03;;;;;;;5.25;3.58;;;;;;;10.22;87.03;98874.31;10183456;28;20465;-64
2024/02/12 09:27:05;;;;;;;4.05;3.13;;;;;;;10.36;87.51;98877.44;10201624;28;20059;-63
2024/02/12 09:32:08;;;;;;;3.92;2.95;;;;;;;10.43;86.35;98878.47;10206183;28;20050;-64
2024/02/12 09:37:13;;;;;;;5.13;3.10;;;;;;;10.53;86.29;98889.03;10199569;28;20047;-64
2024/02/12 09:42:16;;;;;;;5.13;3.58;;;;;;;10.52;84.36;98898.81;10202277;28;20183;-64
2024/02/12 09:47:18;;;;;;;3.30;3.00;;;;;;;10.55;84.27;98903.84;10208405;28;20069;-62
2024/02/12 09:52:21;;;;;;;6.50;3.47;;;;;;;10.68;85.24;98913.22;10183302;28;20865;-63
2024/02/12 09:57:26;;;;;;;5.40;3.60;;;;;;;10.58;83.30;98916.84;10214181;28;20043;-63
2024/02/12 10:02:35;;;;;;;3.88;2.72;;;;;;;10.58;83.14;98926.63;10201954;28;20059;-63
2024/02/12 10:07:40;;;;;;;7.15;2.97;;;;;;;10.50;83.39;98916.75;10196703;28;20069;-63
2024/02/12 10:12:42;;;;;;;4.25;2.97;;;;;;;10.52;83.76;98941.38;10202280;28;20047;-63
2024/02/12 10:17:46;;;;;;;5.93;3.30;;;;;;;10.48;84.21;98945.38;10187818;28;20284;-64
2024/02/12 10:22:49;;;;;;;7.45;3.00;;;;;;;10.34;84.07;98928.09;10193953;28;20084;-63
2024/02/12 10:27:50;;;;;;;5.97;3.05;;;;;;;10.33;84.69;98941.53;10188763;28;20431;-62
2024/02/12 10:32:54;;;;;;;3.47;2.35;;;;;;;10.41;85.64;98954.94;10208197;28;20058;-63
2024/02/12 10:37:56;;;;;;;4.30;3.07;;;;;;;10.38;84.14;98947.28;10183242;28;20065;-64
2024/02/12 10:43:05;;;;;;;5.85;3.03;;;;;;;10.41;85.21;98952.28;10169140;28;20073;-62
2024/02/12 10:48:08;;;;;;;6.05;4.53;;;;;;;10.27;84.68;98933.19;10197398;28;20059;-63
2024/02/12 10:53:10;;;;;;;6.90;4.80;;;;;;;10.43;86.05;98966.25;10202492;28;20833;-63
2024/02/12 10:58:13;;;;;;;5.60;4.25;;;;;;;10.29;86.48;98972.09;10180869;28;20058;-62
2024/02/12 11:03:14;;;;;;;5.53;3.38;;;;;;;10.19;87.96;98973.03;10204411;28;20583;-64
2024/02/12 11:08:18;;;;;;;7.53;4.97;;;;;;;10.14;88.42;98977.13;10211888;28;20636;-64
2024/02/12 11:13:21;;;;;;;8.45;7.57;;;;;;;10.15;88.44;98982.28;10184401;28;20069;-63
2024/02/12 11:18:25;;;;;;;6.70;4.03;;;;;;;10.13;89.76;98984.25;10221061;28;20078;-62
2024/02/12 11:23:28;;;;;;;5.03;3.53;;;;;;;10.15;90.10;98986.75;10175939;28;20206;-63
2024/02/12 11:28:30;;;;;;;4.72;3.22;;;;;;;10.16;88.96;98989.25;10215624;28;20382;-64
2024/02/12 11:33:35;;;;;;;5.65;3.28;;;;;;;10.12;88.71;99003.88;10200999;28;20081;-63
2024/02/12 11:38:37;;;;;;;5.78;3.47;;;;;;;10.15;87.04;99005.38;10197708;28;20408;-63
2024/02/12 11:43:40;;;;;;;4.40;2.35;;;;;;;10.19;88.87;99004.94;10202321;28;20054;-63
2024/02/12 11:48:44;;;;;;;2.70;2.25;;;;;;;10.19;88.06;99012.91;10209419;28;20200;-64
2024/02/12 11:53:51;;;;;;;3.85;2.22;;;;;;;10.36;88.30;99005.13;10211615;28;20556;-63
2024/02/12 11:58:56;;;;;;;4.85;2.50;;;;;;;10.60;86.31;99002.66;10205153;28;20065;-64
2024/02/12 12:03:59;;;;;;;4.03;2.45;;;;;;;11.08;84.72;99004.97;10199544;28;20055;-63
2024/02/12 12:09:08;;;;;;;5.30;2.40;;;;;;;11.50;81.33;99004.22;10206424;28;20058;-63
2024/02/12 12:14:10;;;;;;;3.95;2.30;;;;;;;11.47;78.40;98988.53;10190519;28;20039;-63
2024/02/12 12:19:12;;;;;;;4.28;3.10;;;;;;;11.59;79.00;99010.38;10203749;28;20051;-63
2024/02/12 12:24:16;;;;;;;2.08;1.77;;;;;;;11.60;78.80;99012.06;10202283;28;20095;-64
2024/02/12 12:29:18;;;;;;;3.35;2.20;;;;;;;11.58;75.40;99017.56;10204688;28;20105;-63
2024/02/12 12:34:29;;;;;;;2.97;1.60;;;;;;;12.12;73.49;99014.59;10197280;28;20056;-62
2024/02/12 12:39:32;;;;;;;3.97;3.67;;;;;;;12.71;70.07;99006.44;10193764;28;20105;-62
2024/02/12 12:44:34;;;;;;;2.05;1.70;;;;;;;12.93;67.79;99017.44;10184449;28;20081;-64
2024/02/12 12:49:40;;;;;;;2.85;1.90;;;;;;;13.34;66.47;99030.75;10199948;28;20137;-64
2024/02/12 12:54:41;;;;;;;2.50;1.38;;;;;;;13.15;66.86;99025.75;10194474;28;20090;-64
2024/02/12 12:59:43;;;;;;;3.33;1.70;;;;;;;12.89;68.09;99024.13;10200927;28;20085;-63
2024/02/12 13:04:47;;;;;;;2.05;1.58;;;;;;;12.60;69.35;99028.16;10198648;28;20178;-64
2024/02/12 13:09:50;;;;;;;1.70;1.55;;;;;;;12.27;69.54;99032.63;10187238;28;20056;-64
2024/02/12 13:14:52;;;;;;;1.88;1.48;;;;;;;11.83;69.91;99031.81;10190809;28;20753;-63
2024/02/12 13:19:54;;;;;;;2.05;1.15;;;;;;;11.45;73.04;99027.81;10183696;28;20062;-63
2024/02/12 13:24:55;;;;;;;2.30;1.40;;;;;;;11.17;72.56;99036.00;10164220;28;21235;-64
2024/02/12 13:30:09;;;;;;;1.50;1.20;;;;;;;11.49;73.83;99039.84;10185352;28;20119;-63
2024/02/12 13:35:11;;;;;;;1.67;1.40;;;;;;;11.70;72.59;99038.59;10193389;28;20059;-64
2024/02/12 13:40:17;;;;;;;2.35;1.35;;;;;;;11.68;73.06;99046.75;10199020;28;20143;-64
2024/02/12 13:45:23;;;;;;;3.50;1.52;;;;;;;11.69;72.76;99056.41;10184963;28;20051;-63
2024/02/12 13:50:26;;;;;;;2.85;1.52;;;;;;;11.75;73.25;99060.28;10201573;28;20130;-63
2024/02/12 13:55:28;;;;;;;4.25;2.03;;;;;;;11.99;71.47;99065.75;10196141;28;20139;-63
2024/02/12 14:00:29;;;;;;;3.38;1.73;;;;;;;12.06;70.93;99063.25;10182635;28;20050;-64
2024/02/12 14:05:54;;;;;;;3.17;1.48;;;;;;;11.98;70.23;99064.06;10209117;28;20051;-63
2024/02/12 14:10:57;;;;;;;3.22;1.20;;;;;;;11.91;70.60;99073.66;10197379;28;20062;-63
2024/02/12 14:16:00;;;;;;;3.13;1.70;;;;;;;11.84;69.24;99069.97;10179393;28;20066;-62
2024/02/12 14:21:11;;;;;;;2.60;1.80;;;;;;;11.88;70.93;99079.31;10196329;28;20279;-63
2024/02/12 14:26:13;;;;;;;3.88;1.63;;;;;;;11.91;69.91;99091.50;10201031;28;20080;-62
2024/02/12 14:31:16;;;;;;;2.67;1.70;;;;;;;11.88;70.83;99100.66;10182899;28;20562;-63
2024/02/12 14:36:18;;;;;;;3.67;1.88;;;;;;;11.59;71.18;99125.84;10201561;28;20073;-63
2024/02/12 14:41:23;;;;;;;4.25;1.83;;;;;;;10.55;81.08;99159.28;10198050;28;20067;-64
2024/02/12 14:46:25;;;;;;;1.88;1.08;;;;;;;10.34;88.14;99135.59;10204860;28;20056;-64
2024/02/12 14:51:27;;;;;;;1.90;1.00;;;;;;;10.64;85.42;99135.41;10168980;28;20076;-63
2024/02/12 14:56:28;;;;;;;2.65;0.85;;;;;;;10.90;84.41;99146.97;10207739;28;20933;-64
2024/02/12 15:01:30;;;;;;;1.40;0.88;;;;;;;11.05;85.21;99144.59;10204905;28;20059;-63
2024/02/12 15:06:32;;;;;;;2.95;1.42;;;;;;;11.09;84.41;99155.78;10188818;28;20054;-63
2024/02/12 15:11:34;;;;;;;2.55;1.20;;;;;;;11.08;82.45;99162.09;10202710;28;20055;-63
2024/02/12 15:16:36;;;;;;;2.13;1.10;;;;;;;11.10;83.68;99168.13;10205958;28;20082;-64
2024/02/12 15:21:38;;;;;;;1.92;1.20;;;;;;;11.12;84.16;99166.13;10208039;28;20044;-63
2024/02/12 15:26:40;;;;;;;1.90;1.00;;;;;;;11.20;85.12;99184.84;10205738;28;20058;-64
2024/02/12 15:31:42;;;;;;;3.20;1.67;;;;;;;11.11;84.47;99189.28;10201101;28;20696;-64
2024/02/12 15:36:44;;;;;;;3.15;1.35;;;;;;;11.15;86.22;99187.13;10207867;28;20471;-64
2024/02/12 15:41:45;;;;;;;3.03;1.73;;;;;;;11.18;86.13;99208.13;10205282;28;20051;-65
2024/02/12 15:46:50;;;;;;;3.97;2.03;;;;;;;11.09;87.05;99222.34;10194660;28;20055;-63
2024/02/12 15:51:53;;;;;;;5.30;2.72;;;;;;;10.93;87.42;99234.53;10201291;28;20253;-62
2024/02/12 15:56:55;;;;;;;3.20;2.10;;;;;;;10.83;88.52;99230.25;10209714;28;20545;-63
2024/02/12 16:02:07;;;;;;;4.70;2.05;;;;;;;10.99;89.66;99240.22;10194536;28;20521;-63
2024/02/12 16:07:10;;;;;;;3.25;2.15;;;;;;;11.00;88.38;99239.25;10213899;28;20110;-63
2024/02/12 16:12:13;;;;;;;5.05;2.70;;;;;;;11.03;87.96;99246.94;10209678;28;20053;-63
2024/02/12 16:17:17;;;;;;;3.58;1.88;;;;;;;10.98;86.28;99259.88;10180869;28;20046;-63
2024/02/12 16:22:19;;;;;;;3.88;2.10;;;;;;;10.92;86.37;99258.66;10211923;28;20049;-63
2024/02/12 16:27:20;;;;;;;4.53;2.13;;;;;;;10.85;87.71;99261.06;10197417;28;20159;-62
2024/02/12 16:32:23;;;;;;;3.85;2.90;;;;;;;10.76;88.44;99275.25;10199288;28;20074;-63
2024/02/12 16:37:26;;;;;;;5.03;3.15;;;;;;;10.67;88.12;99284.16;10202060;28;20724;-62
2024/02/12 16:42:28;;;;;;;3.30;2.67;;;;;;;10.61;88.78;99283.75;10196329;28;20529;-62
2024/02/12 16:47:30;;;;;;;3.90;2.90;;;;;;;10.67;88.84;99316.09;10201703;28;20160;-61
2024/02/12 16:52:32;;;;;;;7.03;3.42;;;;;;;10.59;89.00;99320.31;10196257;28;20058;-63
2024/02/12 16:57:35;;;;;;;3.95;2.83;;;;;;;10.52;88.57;99329.84;10196623;28;20054;-63
2024/02/12 17:02:36;;;;;;;5.22;4.68;;;;;;;10.55;89.79;99345.56;10199826;28;20054;-63
2024/02/12 17:07:38;;;;;;;5.03;3.67;;;;;;;10.41;89.68;99354.81;10199053;28;20070;-63
2024/02/12 17:12:58;;;;;;;8.10;4.72;;;;;;;10.38;91.11;99367.59;10191549;28;20062;-63
2024/02/12 17:18:04;;;;;;;5.60;5.00;;;;;;;10.46;91.75;99370.34;10198270;28;24869;-60
2024/02/12 17:23:07;;;;;;;8.18;4.90;;;;;;;10.44;91.42;99380.31;10198227;28;20077;-61
2024/02/12 17:28:10;;;;;;;6.55;4.95;;;;;;;10.39;92.05;99382.56;10198010;28;20684;-64
2024/02/12 17:33:15;;;;;;;11.40;10.20;;;;;;;10.29;92.09;99371.06;10180541;28;20573;-65
2024/02/12 17:38:18;;;;;;;6.90;5.50;;;;;;;10.42;92.16;99401.72;10203574;28;20540;-63
2024/02/12 17:43:20;;;;;;;6.28;3.80;;;;;;;10.37;91.34;99409.31;10190929;28;20123;-62
2024/02/12 17:48:22;;;;;;;4.78;4.18;;;;;;;10.44;92.01;99414.91;10185900;28;20047;-65
2024/02/12 17:53:27;;;;;;;6.72;5.32;;;;;;;10.43;92.43;99426.50;10200015;28;20070;-65
2024/02/12 17:58:28;;;;;;;23.45;19.85;;;;;;;10.37;92.01;99421.75;10187333;28;20250;-64
2024/02/12 18:03:31;;;;;;;10.40;7.03;;;;;;;10.36;91.72;99428.09;10203666;28;20163;-64
2024/02/12 18:08:32;;;;;;;11.23;7.30;;;;;;;10.31;92.10;99439.09;10201953;28;20455;-64
2024/02/12 18:13:34;;;;;;;12.45;7.18;;;;;;;10.34;92.20;99451.31;10190044;28;20441;-64
2024/02/12 18:18:36;;;;;;;8.07;5.90;;;;;;;10.25;92.00;99452.97;10169319;28;20676;-64
2024/02/12 18:23:38;;;;;;;9.50;5.88;;;;;;;10.23;91.74;99469.06;10201128;28;20593;-63
2024/02/12 18:28:39;;;;;;;7.38;5.13;;;;;;;10.24;92.44;99486.72;10198923;28;20055;-63
2024/02/12 18:33:41;;;;;;;8.30;5.80;;;;;;;10.22;92.21;99491.34;10197473;28;20966;-61
2024/02/12 18:38:43;;;;;;;8.07;5.63;;;;;;;10.24;92.70;99501.84;10195692;28;20075;-65
2024/02/12 18:43:46;;;;;;;6.65;5.95;;;;;;;10.21;92.50;99510.94;10193185;28;20066;-65
2024/02/12 18:48:51;;;;;;;7.38;5.22;;;;;;;10.22;92.10;99517.06;10171194;28;20491;-64
2024/02/12 18:53:56;;;;;;;10.75;5.80;;;;;;;10.19;91.81;99530.66;10194110;28;20065;-64
2024/02/12 18:58:57;;;;;;;6.00;4.95;;;;;;;10.07;89.71;99517.50;10178023;28;20537;-66
2024/02/12 19:04:00;;;;;;;8.43;6.25;;;;;;;10.25;91.02;99541.59;10186303;28;20055;-65
2024/02/12 19:09:08;;;;;;;6.50;5.13;;;;;;;10.19;86.32;99547.47;10173769;28;20071;-65
2024/02/12 19:14:11;;;;;;;4.90;3.58;;;;;;;10.10;83.60;99553.59;10175694;28;20051;-65
2024/02/12 19:19:12;;;;;;;4.60;2.83;;;;;;;10.04;83.62;99554.16;10188382;28;20090;-65
2024/02/12 19:24:14;;;;;;;6.93;3.72;;;;;;;10.12;81.03;99570.28;10200898;28;20055;-63
2024/02/12 19:29:16;;;;;;;5.32;2.92;;;;;;;10.14;84.40;99568.31;10204182;28;20226;-64
2024/02/12 19:34:19;;;;;;;3.83;2.30;;;;;;;10.20;85.22;99583.72;10199929;28;20659;-64
2024/02/12 19:39:21;;;;;;;5.18;2.45;;;;;;;10.25;83.45;99593.94;10198072;28;20082;-64
2024/02/12 19:44:23;;;;;;;4.07;1.92;;;;;;;10.00;81.95;99600.63;10200348;28;20088;-65
2024/02/12 19:49:24;;;;;;;3.00;1.88;;;;;;;10.08;82.17;99614.91;10201773;28;20056;-64
2024/02/12 19:54:26;;;;;;;3.17;2.03;;;;;;;9.96;81.48;99593.88;10202777;28;20108;-66
2024/02/12 19:59:27;;;;;;;2.30;1.40;;;;;;;10.08;81.36;99638.81;10191865;28;20500;-66
2024/02/12 20:04:31;;;;;;;3.75;1.80;;;;;;;10.16;82.99;99645.28;10208766;28;20059;-66
2024/02/12 20:09:34;;;;;;;2.10;1.70;;;;;;;10.21;83.02;99653.72;10189641;28;20062;-65
2024/02/12 20:14:36;;;;;;;3.65;2.58;;;;;;;10.23;82.59;99657.91;10196522;28;20062;-65
2024/02/12 20:19:40;;;;;;;3.15;2.00;;;;;;;10.16;81.49;99664.75;10198739;28;20070;-66
2024/02/12 20:24:42;;;;;;;2.92;1.90;;;;;;;10.12;80.24;99675.78;10184556;28;20071;-64
2024/02/12 20:29:47;;;;;;;5.00;2.28;;;;;;;10.05;80.17;99688.78;10208072;28;20050;-64
2024/02/12 20:34:48;;;;;;;4.80;2.17;;;;;;;10.00;80.64;99707.81;10190810;28;20094;-64
2024/02/12 20:39:51;;;;;;;4.13;2.05;;;;;;;9.95;80.55;99709.19;10186585;28;20070;-63
2024/02/12 20:44:52;;;;;;;2.53;1.80;;;;;;;9.84;81.23;99724.22;10204528;28;20047;-64
2024/02/12 20:49:54;;;;;;;5.22;1.70;;;;;;;9.81;78.76;99719.19;10180974;28;20059;-66
2024/02/12 20:54:57;;;;;;;3.45;1.92;;;;;;;9.71;79.46;99726.25;10183248;28;20058;-64
2024/02/12 20:59:58;;;;;;;4.07;1.92;;;;;;;9.79;80.37;99749.50;10200096;28;20113;-65
2024/02/12 21:05:00;;;;;;;4.28;1.75;;;;;;;9.75;79.96;99762.22;10204315;28;20539;-66
2024/02/12 21:10:05;;;;;;;2.83;1.85;;;;;;;9.60;79.90;99744.94;10208524;28;20765;-64
2024/02/12 21:15:07;;;;;;;;;;;;;;;9.43;80.19;99731.25;10186841;28;20208;-64
2024/02/12 21:20:09;;;;;;;6.80;2.85;;;;;;;9.59;80.67;99772.47;10210859;28;20466;-64
2024/02/12 21:25:13;;;;;;;4.13;2.33;;;;;;;9.57;80.16;99771.78;10199676;28;20206;-63
2024/02/12 21:30:20;;;;;;;4.95;2.13;;;;;;;9.51;80.04;99776.59;10189284;28;20496;-65
2024/02/12 21:35:22;;;;;;;4.28;1.70;;;;;;;9.50;79.23;99788.22;10188041;28;20055;-65
2024/02/12 21:40:25;;;;;;;3.35;1.80;;;;;;;9.46;79.35;99788.63;10198172;28;20055;-63
2024/02/12 21:45:28;;;;;;;4.03;1.50;;;;;;;9.48;80.08;99798.13;10194115;28;20491;-65
2024/02/12 21:50:30;;;;;;;3.50;1.83;;;;;;;9.42;79.43;99816.41;10196577;28;20043;-65
2024/02/12 21:55:32;;;;;;;3.85;1.98;;;;;;;9.40;80.74;99805.91;10194693;28;20039;-62
2024/02/12 22:00:36;;;;;;;5.38;1.88;;;;;;;9.38;79.15;99810.47;10194709;28;20052;-63
2024/02/12 22:05:38;;;;;;;3.42;1.50;;;;;;;9.37;80.37;99814.97;10196592;28;20569;-62
2024/02/12 22:10:39;;;;;;;2.42;1.80;;;;;;;9.26;79.59;99811.50;10198894;28;20043;-64
2024/02/12 22:15:44;;;;;;;7.60;1.50;;;;;;;9.22;80.86;99818.03;10180491;28;20051;-62
2024/02/12 22:20:46;;;;;;;2.30;2.10;;;;;;;9.23;80.25;99819.72;10194548;28;20063;-64
2024/02/12 22:25:49;;;;;;;5.82;3.47;;;;;;;9.28;80.86;99849.41;10180873;28;20066;-64
2024/02/12 22:30:51;;;;;;;4.55;1.80;;;;;;;8.88;80.21;99813.63;10198261;28;20055;-63
2024/02/12 22:35:53;;;;;;;5.15;2.28;;;;;;;8.92;79.12;99865.53;10177602;28;20161;-64
2024/02/12 22:40:57;;;;;;;3.42;1.85;;;;;;;8.81;79.95;99882.31;10187891;28;20178;-63
2024/02/12 22:45:59;;;;;;;5.40;2.05;;;;;;;8.73;80.96;99882.06;10197150;28;20784;-62
2024/02/12 22:51:01;;;;;;;3.10;1.30;;;;;;;8.69;81.11;99891.22;10213872;28;20508;-62
2024/02/12 22:56:03;;;;;;;2.78;1.50;;;;;;;8.75;80.78;99905.81;10203443;28;20057;-61
2024/02/12 23:01:05;;;;;;;9.43;1.48;;;;;;;8.73;80.93;99908.59;10193521;28;20425;-63
2024/02/12 23:06:10;;;;;;;5.25;1.77;;;;;;;8.76;81.96;99913.66;10206419;28;20050;-63
2024/02/12 23:11:12;;;;;;;2.78;1.70;;;;;;;8.74;82.25;99926.22;10219422;28;20054;-64
2024/02/12 23:16:15;;;;;;;2.42;1.52;;;;;;;8.74;82.09;99942.13;10212867;28;20047;-63
2024/02/12 23:21:17;;;;;;;2.55;1.38;;;;;;;8.74;82.60;99947.44;10202961;28;20048;-63
2024/02/12 23:26:19;;;;;;;3.72;2.08;;;;;;;8.64;82.58;99957.91;10202172;28;20053;-62
2024/02/12 23:31:22;;;;;;;3.08;1.60;;;;;;;8.71;83.20;99963.59;10201432;28;20043;-64
2024/02/12 23:36:24;;;;;;;3.80;1.88;;;;;;;8.68;83.36;99969.16;10206183;28;20102;-62
2024/02/12 23:41:26;;;;;;;2.58;1.52;;;;;;;8.69;83.29;99981.44;10205501;28;20084;-64
2024/02/12 23:46:28;;;;;;;2.90;1.70;;;;;;;8.68;83.00;99979.75;10195301;28;20074;-64
2024/02/12 23:51:31;;;;;;;3.75;1.70;;;;;;;8.59;81.77;99991.94;10188598;28;20069;-61